createdAt,value
2023-01-18T00:00:08.441Z,5.47
2023-01-18T00:02:56.017Z,3.80
2023-01-18T00:05:43.305Z,3.77
2023-01-18T00:08:31.848Z,4.20
2023-01-18T00:11:18.937Z,4.07
2023-01-18T00:14:05.392Z,3.77
2023-01-18T00:16:51.639Z,3.90
2023-01-18T00:19:37.828Z,3.83
2023-01-18T00:22:24.273Z,3.83
2023-01-18T00:25:11.015Z,3.60
2023-01-18T00:27:57.517Z,3.63
2023-01-18T00:30:43.812Z,4.00
2023-01-18T00:33:30.032Z,4.03
2023-01-18T00:36:17.777Z,3.37
2023-01-18T00:39:04.362Z,3.60
2023-01-18T00:42:09.696Z,4.07
2023-01-18T00:44:56.318Z,4.50
2023-01-18T00:47:42.683Z,4.30
2023-01-18T00:50:28.932Z,3.97
2023-01-18T00:53:15.124Z,3.73
2023-01-18T00:56:01.580Z,4.67
2023-01-18T00:58:48.144Z,4.43
2023-01-18T01:01:34.817Z,3.97
2023-01-18T01:04:39.936Z,4.83
2023-01-18T01:07:26.187Z,4.50
2023-01-18T01:10:12.373Z,4.40
2023-01-18T01:13:17.479Z,4.27
2023-01-18T01:16:27.864Z,4.77
2023-01-18T01:19:32.873Z,4.07
2023-01-18T01:22:37.789Z,4.40
2023-01-18T01:25:43.011Z,4.23
2023-01-18T01:28:29.402Z,4.37
2023-01-18T01:31:17.264Z,4.47
2023-01-18T01:34:03.540Z,4.57
2023-01-18T01:36:50.752Z,4.87
2023-01-18T01:39:37.405Z,5.27
2023-01-18T01:42:23.483Z,4.50
2023-01-18T01:45:10.397Z,3.90
2023-01-18T01:47:57.467Z,4.90
2023-01-18T01:50:43.607Z,5.20
2023-01-18T01:53:29.824Z,5.13
2023-01-18T01:56:18.579Z,4.97
2023-01-18T01:59:06.211Z,6.93
2023-01-18T02:01:52.525Z,7.83
2023-01-18T02:04:44.121Z,5.70
2023-01-18T02:07:32.553Z,7.40
2023-01-18T02:10:19.173Z,12.33
2023-01-18T02:13:09.389Z,14.07
2023-01-18T02:16:34.460Z,5.37
2023-01-18T02:20:07.199Z,7.73
2023-01-18T02:23:14.635Z,6.67
2023-01-18T02:26:06.959Z,4.37
2023-01-18T02:29:03.891Z,4.80
2023-01-18T02:32:05.309Z,5.10
2023-01-18T02:35:07.672Z,4.77
2023-01-18T02:38:11.982Z,6.00
2023-01-18T02:41:01.419Z,6.90
2023-01-18T02:44:11.855Z,4.40
2023-01-18T02:46:58.214Z,5.07
2023-01-18T02:49:44.443Z,5.23
2023-01-18T02:52:41.828Z,6.47
2023-01-18T02:55:40.309Z,4.70
2023-01-18T02:58:47.566Z,4.33
2023-01-18T03:01:59.567Z,4.00
2023-01-18T03:04:55.596Z,4.23
2023-01-18T03:07:55.802Z,4.97
2023-01-18T03:11:15.553Z,5.53
2023-01-18T03:14:18.883Z,4.03
2023-01-18T03:17:25.733Z,5.17
2023-01-18T03:20:19.093Z,4.77
2023-01-18T03:23:34.998Z,4.00
2023-01-18T03:26:23.824Z,4.40
2023-01-18T03:29:31.657Z,4.60
2023-01-18T03:32:37.160Z,4.77
2023-01-18T03:35:27.120Z,5.20
2023-01-18T03:38:14.531Z,4.07
2023-01-18T03:41:01.975Z,4.67
2023-01-18T03:43:52.652Z,4.50
2023-01-18T03:46:40.586Z,4.57
2023-01-18T03:49:29.916Z,23.00
2023-01-18T03:52:43.077Z,16.00
2023-01-18T03:55:43.473Z,6.13
2023-01-18T03:58:35.245Z,6.47
2023-01-18T04:01:22.242Z,4.43
2023-01-18T04:04:08.875Z,4.57
2023-01-18T04:06:54.946Z,4.00
2023-01-18T04:09:41.276Z,3.80
2023-01-18T04:12:28.235Z,4.83
2023-01-18T04:15:14.534Z,3.93
2023-01-18T04:18:00.771Z,4.47
2023-01-18T04:20:47.047Z,3.40
2023-01-18T04:23:33.271Z,3.47
2023-01-18T04:26:19.463Z,3.50
2023-01-18T04:29:05.952Z,3.60
2023-01-18T04:31:52.224Z,3.40
2023-01-18T04:34:38.797Z,3.50
2023-01-18T04:37:30.536Z,3.27
2023-01-18T04:40:17.005Z,3.17
2023-01-18T04:43:04.463Z,3.53
2023-01-18T04:45:55.342Z,3.87
2023-01-18T04:48:42.276Z,3.57
2023-01-18T04:51:31.240Z,4.20
2023-01-18T04:54:18.659Z,3.83
2023-01-18T04:57:04.819Z,3.17
2023-01-18T04:59:51.333Z,2.93
2023-01-18T05:02:38.038Z,3.43
2023-01-18T05:05:26.339Z,2.63
2023-01-18T05:08:12.779Z,3.50
2023-01-18T05:11:04.559Z,2.63
2023-01-18T05:13:51.231Z,2.73
2023-01-18T05:16:37.661Z,2.60
2023-01-18T05:19:24.091Z,2.97
2023-01-18T05:22:10.598Z,2.87
2023-01-18T05:24:56.859Z,3.10
2023-01-18T05:27:43.132Z,3.20
2023-01-18T05:30:29.376Z,3.40
2023-01-18T05:33:19.511Z,2.97
2023-01-18T05:36:06.304Z,3.40
2023-01-18T05:38:52.613Z,3.20
2023-01-18T05:41:38.827Z,3.13
2023-01-18T05:44:25.497Z,2.83
2023-01-18T05:47:11.812Z,3.63
2023-01-18T05:50:00.422Z,3.17
2023-01-18T05:52:46.657Z,3.70
2023-01-18T05:55:33.261Z,4.07
2023-01-18T05:58:19.955Z,3.77
2023-01-18T06:01:08.271Z,3.70
2023-01-18T06:03:55.264Z,4.33
2023-01-18T06:06:41.704Z,5.17
2023-01-18T06:09:30.019Z,4.17
2023-01-18T06:12:16.569Z,5.57
2023-01-18T06:15:03.307Z,4.77
2023-01-18T06:17:49.783Z,4.93
2023-01-18T06:20:36.712Z,6.43
2023-01-18T06:23:24.044Z,6.43
2023-01-18T06:26:10.419Z,5.93
2023-01-18T06:28:57.735Z,5.00
2023-01-18T06:31:44.095Z,5.93
2023-01-18T06:34:30.605Z,6.50
2023-01-18T06:37:17.335Z,8.47
2023-01-18T06:40:03.779Z,8.67
2023-01-18T06:42:50.401Z,7.67
2023-01-18T06:45:36.881Z,8.80
2023-01-18T06:48:24.711Z,7.87
2023-01-18T06:51:12.464Z,6.33
2023-01-18T06:53:58.927Z,7.37
2023-01-18T06:56:45.523Z,7.27
2023-01-18T06:59:32.041Z,9.10
2023-01-18T07:02:19.975Z,7.37
2023-01-18T07:05:06.791Z,9.17
2023-01-18T07:07:53.185Z,7.23
2023-01-18T07:10:39.659Z,7.67
2023-01-18T07:13:26.088Z,7.73
2023-01-18T07:16:17.382Z,6.30
2023-01-18T07:19:04.632Z,7.00
2023-01-18T07:21:53.623Z,6.87
2023-01-18T07:24:39.999Z,7.30
2023-01-18T07:27:26.761Z,5.97
2023-01-18T07:30:13.770Z,8.80
2023-01-18T07:33:00.495Z,8.90
2023-01-18T07:35:46.969Z,10.97
2023-01-18T07:38:33.952Z,9.80
2023-01-18T07:41:21.995Z,12.17
2023-01-18T07:44:11.869Z,8.57
2023-01-18T07:46:58.478Z,8.70
2023-01-18T07:49:47.997Z,7.93
2023-01-18T07:52:41.934Z,6.37
2023-01-18T07:55:28.870Z,6.10
2023-01-18T07:58:15.547Z,6.80
2023-01-18T08:01:07.189Z,7.17
2023-01-18T08:03:54.634Z,7.77
2023-01-18T08:06:41.265Z,6.00
2023-01-18T08:09:27.425Z,7.13
2023-01-18T08:12:17.954Z,5.40
2023-01-18T08:15:04.733Z,6.63
2023-01-18T08:17:51.588Z,6.37
2023-01-18T08:20:38.044Z,5.50
2023-01-18T08:23:24.562Z,5.43
2023-01-18T08:26:12.859Z,6.03
2023-01-18T08:28:59.218Z,6.53
2023-01-18T08:31:45.691Z,4.97
2023-01-18T08:34:31.951Z,4.60
2023-01-18T08:37:18.334Z,4.63
2023-01-18T08:40:04.939Z,5.40
2023-01-18T08:42:56.850Z,6.77
2023-01-18T08:45:43.360Z,5.00
2023-01-18T08:48:29.800Z,7.57
2023-01-18T08:51:18.766Z,4.73
2023-01-18T08:54:06.495Z,4.73
2023-01-18T08:56:53.101Z,4.50
2023-01-18T08:59:39.394Z,5.37
2023-01-18T09:02:26.075Z,4.70
2023-01-18T09:05:12.711Z,5.33
2023-01-18T09:07:59.089Z,5.43
2023-01-18T09:10:45.478Z,5.20
2023-01-18T09:13:32.858Z,4.40
2023-01-18T09:16:19.134Z,4.17
2023-01-18T09:19:06.446Z,4.93
2023-01-18T09:21:53.273Z,5.30
2023-01-18T09:24:39.413Z,4.37
2023-01-18T09:27:25.687Z,4.90
2023-01-18T09:30:12.552Z,4.90
2023-01-18T09:32:59.322Z,6.03
2023-01-18T09:35:47.805Z,4.87
2023-01-18T09:38:35.058Z,4.57
2023-01-18T09:41:42.955Z,5.60
2023-01-18T09:44:40.560Z,4.37
2023-01-18T09:47:30.805Z,3.90
2023-01-18T09:50:18.951Z,4.63
2023-01-18T09:53:49.993Z,3.93
2023-01-18T09:56:46.696Z,3.90
2023-01-18T09:59:41.951Z,6.43
2023-01-18T10:02:39.200Z,6.43
2023-01-18T10:05:29.491Z,5.03
2023-01-18T10:08:25.331Z,7.53
2023-01-18T10:11:21.099Z,7.33
2023-01-18T10:14:29.266Z,11.50
2023-01-18T10:17:22.893Z,5.63
2023-01-18T10:20:20.095Z,4.20
2023-01-18T10:23:31.315Z,5.67
2023-01-18T10:26:29.085Z,4.80
2023-01-18T10:29:42.539Z,5.87
2023-01-18T10:32:30.510Z,4.90
2023-01-18T10:35:27.840Z,6.37
2023-01-18T10:38:19.783Z,5.33
2023-01-18T10:41:21.419Z,10.37
2023-01-18T10:44:09.330Z,7.77
2023-01-18T10:47:01.098Z,6.60
2023-01-18T10:49:50.421Z,11.30
2023-01-18T10:52:36.707Z,7.73
2023-01-18T10:55:23.727Z,6.50
2023-01-18T10:58:14.232Z,4.83
2023-01-18T11:01:03.547Z,6.77
2023-01-18T11:03:53.364Z,5.47
2023-01-18T11:06:56.120Z,4.43
2023-01-18T11:09:48.530Z,7.83
2023-01-18T11:12:37.700Z,4.40
2023-01-18T11:15:27.062Z,8.30
2023-01-18T11:18:13.567Z,6.50
2023-01-18T11:21:00.426Z,6.07
2023-01-18T11:23:46.750Z,9.53
2023-01-18T11:26:33.627Z,9.00
2023-01-18T11:29:22.142Z,6.23
2023-01-18T11:32:28.609Z,4.93
2023-01-18T11:35:25.248Z,3.77
2023-01-18T11:38:19.027Z,4.30
2023-01-18T11:41:25.652Z,7.47
2023-01-18T11:44:32.947Z,5.43
2023-01-18T11:47:27.449Z,5.40
2023-01-18T11:50:22.203Z,5.30
2023-01-18T11:53:19.613Z,5.17
2023-01-18T11:56:13.459Z,4.57
2023-01-18T11:59:01.089Z,5.03
2023-01-18T12:02:18.621Z,5.00
2023-01-18T12:05:11.928Z,5.13
2023-01-18T12:08:10.733Z,6.10
2023-01-18T12:11:17.657Z,4.43
2023-01-18T12:14:14.075Z,5.70
2023-01-18T12:17:25.307Z,4.20
2023-01-18T12:20:29.146Z,4.27
2023-01-18T12:23:24.449Z,4.30
2023-01-18T12:26:35.127Z,3.90
2023-01-18T12:29:44.780Z,7.33
2023-01-18T12:32:50.426Z,6.17
2023-01-18T12:36:03.498Z,4.20
2023-01-18T12:38:53.919Z,5.00
2023-01-18T12:41:49.791Z,6.43
2023-01-18T12:44:58.145Z,4.40
2023-01-18T12:48:03.359Z,5.30
2023-01-18T12:50:51.047Z,4.07
2023-01-18T12:53:45.945Z,5.37
2023-01-18T12:56:39.355Z,4.50
2023-01-18T12:59:43.035Z,4.40
2023-01-18T13:02:39.999Z,4.87
2023-01-18T13:05:51.035Z,5.63
2023-01-18T13:09:12.663Z,3.87
2023-01-18T13:12:03.638Z,4.07
2023-01-18T13:15:08.180Z,5.17
2023-01-18T13:18:09.923Z,4.57
2023-01-18T13:21:05.486Z,3.73
2023-01-18T13:24:10.741Z,3.40
2023-01-18T13:27:27.201Z,4.20
2023-01-18T13:30:17.176Z,3.70
2023-01-18T13:33:12.863Z,4.77
2023-01-18T13:36:09.313Z,7.33
2023-01-18T13:39:13.930Z,4.43
2023-01-18T13:42:09.665Z,3.77
2023-01-18T13:45:20.493Z,4.50
2023-01-18T13:48:46.475Z,4.23
2023-01-18T13:51:41.887Z,4.73
2023-01-18T13:54:28.509Z,4.00
2023-01-18T13:57:18.096Z,4.27
2023-01-18T14:00:05.756Z,3.63
2023-01-18T14:03:02.236Z,4.97
2023-01-18T14:05:50.365Z,3.77
2023-01-18T14:08:41.044Z,3.93
2023-01-18T14:11:34.324Z,4.40
2023-01-18T14:14:20.929Z,11.83
2023-01-18T14:17:15.601Z,9.47
2023-01-18T14:20:32.079Z,7.67
2023-01-18T14:23:41.142Z,6.30
2023-01-18T14:26:30.990Z,6.27
2023-01-18T14:29:52.159Z,4.57
2023-01-18T14:32:44.818Z,4.80
2023-01-18T14:35:31.360Z,4.70
2023-01-18T14:38:19.134Z,5.27
2023-01-18T14:41:08.663Z,4.17
2023-01-18T14:43:55.095Z,4.77
2023-01-18T14:46:42.878Z,4.90
2023-01-18T14:49:32.480Z,3.30
2023-01-18T14:52:18.916Z,6.80
2023-01-18T14:55:05.911Z,5.87
2023-01-18T14:58:00.927Z,4.77
2023-01-18T15:05:21.198Z,3.67
2023-01-18T15:08:09.450Z,3.37
2023-01-18T15:10:56.795Z,3.30
2023-01-18T15:13:49.182Z,4.53
2023-01-18T15:16:36.031Z,3.63
2023-01-18T15:19:32.509Z,3.33
2023-01-18T15:22:21.413Z,2.90
2023-01-18T15:25:18.857Z,5.53
2023-01-18T15:28:18.607Z,3.10
2023-01-18T15:31:16.365Z,3.40
2023-01-18T15:34:03.170Z,4.47
2023-01-18T15:36:50.115Z,6.47
2023-01-18T15:39:49.225Z,3.70
2023-01-18T15:42:59.843Z,3.93
2023-01-18T15:45:49.417Z,3.40
2023-01-18T15:48:54.642Z,3.67
2023-01-18T15:51:57.182Z,3.80
2023-01-18T15:54:43.565Z,5.70
2023-01-18T15:57:30.836Z,3.77
2023-01-18T16:01:07.751Z,4.30
2023-01-18T16:04:00.128Z,6.00
2023-01-18T16:06:46.530Z,6.50
2023-01-18T16:09:34.498Z,4.63
2023-01-18T16:12:47.134Z,4.00
2023-01-18T16:15:33.255Z,4.67
2023-01-18T16:18:19.564Z,4.33
2023-01-18T16:21:13.116Z,5.27
2023-01-18T16:23:59.925Z,3.93
2023-01-18T16:26:46.731Z,4.27
2023-01-18T16:29:45.302Z,4.80
2023-01-18T16:32:35.478Z,5.30
2023-01-18T16:35:23.743Z,4.27
2023-01-18T16:38:18.356Z,4.70
2023-01-18T16:41:04.931Z,4.50
2023-01-18T16:43:52.082Z,4.37
2023-01-18T16:46:38.391Z,5.00
2023-01-18T16:49:27.022Z,6.03
2023-01-18T16:52:14.669Z,4.63
2023-01-18T16:55:01.100Z,12.37
2023-01-18T16:57:47.622Z,13.90
2023-01-18T17:00:54.304Z,12.07
2023-01-18T17:03:40.937Z,16.17
2023-01-18T17:06:29.241Z,9.80
2023-01-18T17:09:28.079Z,15.17
2023-01-18T17:12:16.892Z,10.80
2023-01-18T17:15:03.284Z,7.90
2023-01-18T17:17:50.340Z,11.47
2023-01-18T17:20:37.052Z,6.53
2023-01-18T17:23:25.610Z,7.80
2023-01-18T17:26:14.908Z,7.47
2023-01-18T17:29:01.411Z,6.47
2023-01-18T17:31:53.357Z,5.83
2023-01-18T17:34:39.777Z,5.70
2023-01-18T17:37:26.339Z,5.73
2023-01-18T17:40:22.569Z,6.63
2023-01-18T17:43:17.259Z,6.17
2023-01-18T17:46:06.929Z,5.97
2023-01-18T17:48:53.616Z,7.90
2023-01-18T17:51:39.839Z,7.43
2023-01-18T17:54:26.095Z,9.67
2023-01-18T17:57:12.316Z,7.27
2023-01-18T17:59:58.738Z,6.53
2023-01-18T18:02:46.595Z,7.27
2023-01-18T18:05:32.813Z,7.97
2023-01-18T18:08:20.051Z,6.23
2023-01-18T18:11:09.067Z,7.03
2023-01-18T18:13:56.739Z,6.90
2023-01-18T18:16:44.102Z,6.37
2023-01-18T18:19:32.450Z,7.57
2023-01-18T18:22:19.986Z,9.47
2023-01-18T18:25:07.325Z,21.70
2023-01-18T18:27:53.876Z,21.83
2023-01-18T18:30:40.193Z,23.57
2023-01-18T18:33:28.107Z,9.60
2023-01-18T18:36:14.633Z,6.57
2023-01-18T18:39:02.324Z,8.73
2023-01-18T18:41:48.645Z,7.70
2023-01-18T18:44:35.328Z,7.77
2023-01-18T18:47:21.768Z,8.90
2023-01-18T18:50:08.971Z,7.83
2023-01-18T18:52:55.431Z,9.13
2023-01-18T18:55:42.107Z,11.53
2023-01-18T18:58:28.871Z,8.10
2023-01-18T19:01:27.009Z,9.73
2023-01-18T19:04:13.897Z,11.07
2023-01-18T19:07:00.439Z,9.90
2023-01-18T19:09:46.994Z,11.33
2023-01-18T19:12:33.708Z,20.07
2023-01-18T19:15:20.787Z,10.53
2023-01-18T19:18:06.894Z,7.57
2023-01-18T19:20:53.462Z,11.53
2023-01-18T19:23:39.706Z,7.63
2023-01-18T19:26:26.044Z,8.67
2023-01-18T19:29:12.730Z,6.57
2023-01-18T19:31:59.221Z,7.43
2023-01-18T19:34:45.246Z,7.47
2023-01-18T19:37:31.903Z,5.33
2023-01-18T19:40:19.632Z,6.07
2023-01-18T19:43:06.205Z,5.87
2023-01-18T19:45:52.658Z,5.37
2023-01-18T19:48:40.260Z,5.77
2023-01-18T19:51:27.789Z,4.27
2023-01-18T19:54:14.586Z,5.20
2023-01-18T19:57:01.127Z,5.73
2023-01-18T19:59:47.284Z,7.67
2023-01-18T20:02:34.428Z,6.30
2023-01-18T20:05:21.423Z,5.17
2023-01-18T20:08:08.339Z,5.03
2023-01-18T20:10:55.660Z,9.63
2023-01-18T20:13:47.600Z,6.60
2023-01-18T20:16:33.988Z,7.03
2023-01-18T20:19:20.433Z,5.33
2023-01-18T20:22:07.309Z,5.87
2023-01-18T20:24:54.197Z,5.20
2023-01-18T20:27:40.511Z,5.87
2023-01-18T20:30:27.023Z,5.33
2023-01-18T20:33:14.524Z,9.17
2023-01-18T20:36:02.775Z,9.03
2023-01-18T20:38:49.485Z,8.50
2023-01-18T20:41:35.689Z,7.90
2023-01-18T20:44:24.639Z,9.23
2023-01-18T20:47:11.301Z,9.17
2023-01-18T20:50:00.768Z,9.60
2023-01-18T20:52:47.476Z,9.30
2023-01-18T20:55:34.050Z,9.63
2023-01-18T20:58:22.815Z,7.57
2023-01-18T21:01:17.886Z,9.57
2023-01-18T21:04:05.183Z,8.93
2023-01-18T21:06:51.542Z,8.20
2023-01-18T21:09:38.493Z,6.47
2023-01-18T21:12:25.191Z,8.20
2023-01-18T21:15:12.044Z,5.97
2023-01-18T21:17:58.974Z,7.57
2023-01-18T21:20:54.756Z,6.00
2023-01-18T21:23:41.732Z,5.27
2023-01-18T21:26:28.213Z,5.67
2023-01-18T21:29:14.640Z,5.43
2023-01-18T21:32:01.524Z,6.37
2023-01-18T21:34:48.098Z,6.53
2023-01-18T21:37:35.363Z,6.30
2023-01-18T21:40:21.683Z,6.73
2023-01-18T21:43:26.651Z,5.77
2023-01-18T21:46:13.455Z,6.47
2023-01-18T21:49:04.525Z,5.67
2023-01-18T21:52:09.555Z,5.93
2023-01-18T21:54:55.875Z,6.07
2023-01-18T21:57:42.749Z,6.93
2023-01-18T22:00:29.415Z,7.07
2023-01-18T22:03:18.435Z,6.27
2023-01-18T22:06:04.781Z,6.87
2023-01-18T22:08:51.395Z,8.57
2023-01-18T22:11:37.765Z,7.80
2023-01-18T22:14:25.690Z,8.83
2023-01-18T22:17:13.237Z,9.17
2023-01-18T22:20:00.157Z,9.00
2023-01-18T22:22:47.744Z,8.43
2023-01-18T22:25:34.377Z,8.57
2023-01-18T22:28:20.991Z,10.77
2023-01-18T22:31:08.294Z,9.80
2023-01-18T22:33:56.816Z,9.83
2023-01-18T22:36:43.371Z,8.50
2023-01-18T22:39:29.904Z,8.33
2023-01-18T22:42:16.558Z,8.40
2023-01-18T22:45:03.812Z,6.97
2023-01-18T22:47:50.296Z,7.93
2023-01-18T22:50:36.689Z,8.20
2023-01-18T22:53:24.784Z,7.73
2023-01-18T22:56:13.686Z,8.87
2023-01-18T22:59:00.519Z,7.73
2023-01-18T23:01:46.976Z,9.13
2023-01-18T23:04:34.325Z,9.20
2023-01-18T23:07:20.781Z,8.30
2023-01-18T23:10:07.888Z,7.93
2023-01-18T23:12:54.413Z,9.00
2023-01-18T23:16:03.475Z,8.77
2023-01-18T23:18:50.005Z,6.73
2023-01-18T23:21:36.098Z,7.63
2023-01-18T23:24:23.302Z,7.17
2023-01-18T23:27:10.111Z,8.17
2023-01-18T23:29:57.324Z,6.20
2023-01-18T23:32:43.743Z,7.00
2023-01-18T23:35:30.157Z,7.50
2023-01-18T23:38:16.791Z,6.10
2023-01-18T23:41:22.025Z,7.87
2023-01-18T23:44:26.922Z,7.20
2023-01-18T23:47:31.980Z,7.10
2023-01-18T23:50:37.121Z,8.50
2023-01-18T23:53:42.509Z,7.47
2023-01-18T23:56:29.351Z,8.97
2023-01-18T23:59:15.495Z,6.93
